Texas General Land Office
 Texas General Land Office
 George P. Bush, Commissioner

 Oil Spill Prevention
 & Response

Texas Automated Buoy System
Real Time Ocean Observations
Supporting Oil Spill Prevention and
Response since 1995
Geochemical and Environmental Research Group

TABS Buoy V -- Texas Automated Buoy System

TABS Buoy V Conditions at 04/27/2017 21:30 UTC (04/27/2017 16:30 CDT)
27° 53.7960'N   93° 35.8380'W
AA3900 DCS - sensor depth 2m
Anemometer height: 4m
Water Depth: 295 feet (89 meters)
Speed: 0.00 cm/s (0.00 kts) Direction: 90 °T (E) Water Temp: 0°C (32 °F)
System Voltage: 13.3 V Signal Strength: 0.0 dB Ping Count: 0
Wind: 8.0 m/s (15.5 kts)
          From 103°T (ESE)
Air Temp: 21 °C (70 °F)
Relative Humidity:  108 %
Pressure: 1006.4 mb (29.72 inHg)
Waves: 1.5 m (5.0 ft) @ 7 sec
  


IMPORTANT: Notice to Mariners


Today's Velocity Data (download)

   Date   |  Time  |   East |   North|   Speed|  Dir | WaterT |
          |  (UTC) |  (cm/s)|  (cm/s)|  (cm/s)| (°T) |  (°C)  |
==========+========+========+========+========+======+========+
04/27/2017 00:00:00     0.00     0.00     0.00   90.0    0.0
04/27/2017 00:30:00     0.00     0.00     0.00   90.0    0.0
04/27/2017 01:00:00     0.00     0.00     0.00   90.0    0.0
04/27/2017 01:30:00     0.00     0.00     0.00   90.0    0.0
04/27/2017 02:00:00     0.00     0.00     0.00   90.0    0.0
04/27/2017 02:30:00     0.00     0.00     0.00   90.0    0.0
04/27/2017 03:00:00     0.00     0.00     0.00   90.0    0.0
04/27/2017 03:30:00     0.00     0.00     0.00   90.0    0.0
04/27/2017 04:00:00     0.00     0.00     0.00   90.0    0.0
04/27/2017 04:30:00     0.00     0.00     0.00   90.0    0.0
04/27/2017 05:00:00     0.00     0.00     0.00   90.0    0.0
04/27/2017 05:30:00     0.00     0.00     0.00   90.0    0.0
04/27/2017 06:00:00     0.00     0.00     0.00   90.0    0.0
04/27/2017 06:30:00     0.00     0.00     0.00   90.0    0.0
04/27/2017 07:00:00     0.00     0.00     0.00   90.0    0.0
04/27/2017 07:30:00     0.00     0.00     0.00   90.0    0.0
04/27/2017 08:00:00     0.00     0.00     0.00   90.0    0.0
04/27/2017 08:30:00     0.00     0.00     0.00   90.0    0.0
04/27/2017 09:00:00     0.00     0.00     0.00   90.0    0.0
04/27/2017 09:30:00     0.00     0.00     0.00   90.0    0.0
04/27/2017 10:00:00     0.00     0.00     0.00   90.0    0.0
04/27/2017 10:30:00     0.00     0.00     0.00   90.0    0.0
04/27/2017 11:00:00     0.00     0.00     0.00   90.0    0.0
04/27/2017 11:30:00     0.00     0.00     0.00   90.0    0.0
04/27/2017 12:00:00     0.00     0.00     0.00   90.0    0.0
04/27/2017 12:30:00     0.00     0.00     0.00   90.0    0.0
04/27/2017 13:00:00     0.00     0.00     0.00   90.0    0.0
04/27/2017 13:30:00     0.00     0.00     0.00   90.0    0.0
04/27/2017 14:00:00     0.00     0.00     0.00   90.0    0.0
04/27/2017 14:30:00     0.00     0.00     0.00   90.0    0.0
04/27/2017 15:00:00     0.00     0.00     0.00   90.0    0.0
04/27/2017 15:30:00     0.00     0.00     0.00   90.0    0.0
04/27/2017 16:00:00     0.00     0.00     0.00   90.0    0.0
04/27/2017 16:30:00     0.00     0.00     0.00   90.0    0.0
04/27/2017 17:00:00     0.00     0.00     0.00   90.0    0.0
04/27/2017 17:30:00     0.00     0.00     0.00   90.0    0.0
04/27/2017 18:00:00     0.00     0.00     0.00   90.0    0.0
04/27/2017 18:30:00     0.00     0.00     0.00   90.0    0.0
04/27/2017 19:00:00     0.00     0.00     0.00   90.0    0.0
04/27/2017 19:30:00     0.00     0.00     0.00   90.0    0.0
04/27/2017 20:00:00     0.00     0.00     0.00   90.0    0.0
04/27/2017 20:30:00     0.00     0.00     0.00   90.0    0.0
04/27/2017 21:00:00     0.00     0.00     0.00   90.0    0.0
04/27/2017 21:30:00     0.00     0.00     0.00   90.0    0.0



       
 

Today's Wave Data    


   Date   |  Time  |Sig Wave Ht| Peak Period|
          |  (UTC) | (meters)  |    (sec)   |
==========+========+===========+============+
04/27/2017 00:20:53      2.2        7
04/27/2017 01:21:06      1.7        7
04/27/2017 02:21:17      1.9        7
04/27/2017 03:21:29      1.9        8
04/27/2017 04:21:41      1.9        7
04/27/2017 05:21:53      1.8        7
04/27/2017 06:22:04      1.7        7
04/27/2017 07:22:16      1.5        7
04/27/2017 08:22:28      1.8        7
04/27/2017 09:22:41      1.9        8
04/27/2017 10:22:53      1.9        7
04/27/2017 11:23:07      2.2        7
04/27/2017 12:23:17      2.0        7
04/27/2017 13:23:29      1.8        6
04/27/2017 14:23:42      1.8        6
04/27/2017 15:23:55      1.8        6
04/27/2017 16:24:25      1.8        7
04/27/2017 17:24:25      1.8        7
04/27/2017 18:24:38      1.7        8
04/27/2017 19:24:50      1.6        8
04/27/2017 20:25:06      1.6        7
04/27/2017 21:25:30      1.5        7
       
 

Today's Temperature - Salinity Data     (Download)


   Date   |  Time  |   Temp |   Cond |Salinity| Density|SoundVel|
          |  (UTC) |   (°C) | (ms/cm)|        | kg/m^3 |  (m/s) |
==========+========+========+========+========+========+========+
04/27/2017 00:00:00    25.26    54.64    35.96     0.00     0.00
04/27/2017 00:30:00    25.19    54.54    35.95     0.00     0.00
04/27/2017 01:00:00    25.15    54.47    35.93     0.00     0.00
04/27/2017 01:30:00    25.18    54.54    35.95     0.00     0.00
04/27/2017 02:00:00    25.11    54.43    35.93     0.00     0.00
04/27/2017 02:30:00    25.19    54.55    35.95     0.00     0.00
04/27/2017 03:00:00    25.11    54.43    35.93     0.00     0.00
04/27/2017 03:30:00    25.04    54.34    35.91     0.00     0.00
04/27/2017 04:00:00    25.19    54.57    35.97     0.00     0.00
04/27/2017 04:30:00    25.16    54.53    35.96     0.00     0.00
04/27/2017 05:00:00    25.19    54.58    35.98     0.00     0.00
04/27/2017 05:30:00    25.16    54.54    35.97     0.00     0.00
04/27/2017 06:00:00    25.24    54.69    36.01     0.00     0.00
04/27/2017 06:30:00    25.26    54.72    36.02     0.00     0.00
04/27/2017 07:00:00    25.24    54.69    36.02     0.00     0.00
04/27/2017 07:30:00    25.21    54.65    36.01     0.00     0.00
04/27/2017 08:00:00    25.21    54.65    36.01     0.00     0.00
04/27/2017 08:30:00    25.24    54.70    36.03     0.00     0.00
04/27/2017 09:00:00    25.18    54.62    36.01     0.00     0.00
04/27/2017 09:30:00    25.17    54.60    36.01     0.00     0.00
04/27/2017 10:00:00    25.16    54.60    36.01     0.00     0.00
04/27/2017 10:30:00    25.17    54.62    36.02     0.00     0.00
04/27/2017 11:00:00    25.18    54.64    36.02     0.00     0.00
04/27/2017 11:30:00    25.19    54.65    36.03     0.00     0.00
04/27/2017 12:00:00    25.16    54.61    36.02     0.00     0.00
04/27/2017 12:30:00    25.16    54.61    36.03     0.00     0.00
04/27/2017 13:00:00    25.17    54.63    36.03     0.00     0.00
04/27/2017 13:30:00    25.18    54.65    36.04     0.00     0.00
04/27/2017 14:00:00    25.17    54.64    36.03     0.00     0.00
04/27/2017 14:30:00    25.17    54.64    36.03     0.00     0.00
04/27/2017 15:00:00    25.17    54.64    36.04     0.00     0.00
04/27/2017 15:30:00    25.17    54.63    36.03     0.00     0.00
04/27/2017 16:00:00    25.16    54.62    36.03     0.00     0.00
04/27/2017 16:30:00    25.15    54.60    36.02     0.00     0.00
04/27/2017 17:00:00    25.16    54.61    36.02     0.00     0.00
04/27/2017 17:30:00    25.16    54.59    36.01     0.00     0.00
04/27/2017 18:00:00    25.16    54.58    36.00     0.00     0.00
04/27/2017 18:30:00    25.17    54.59    35.99     0.00     0.00
04/27/2017 19:00:00    25.18    54.60    35.99     0.00     0.00
04/27/2017 19:30:00    25.18    54.58    35.99     0.00     0.00
04/27/2017 20:00:00    25.20    54.61    35.99     0.00     0.00
04/27/2017 20:30:00    25.20    54.61    35.99     0.00     0.00
04/27/2017 21:00:00    25.21    54.62    35.98     0.00     0.00
04/27/2017 21:30:00    25.20    54.61    35.98     0.00     0.00